createdAt,value
2022-09-27T04:31:00.869Z,9.43
2022-09-27T04:32:00.795Z,9.45
2022-09-27T04:33:00.783Z,9.45
2022-09-27T04:34:00.759Z,9.43
2022-09-27T04:35:00.744Z,9.42
2022-09-27T04:36:00.728Z,9.40
2022-09-27T04:37:00.735Z,9.40
2022-09-27T04:38:00.705Z,9.42
2022-09-27T04:39:00.697Z,9.39
2022-09-27T04:40:00.673Z,9.38
2022-09-27T04:41:00.703Z,9.40
2022-09-27T04:42:00.653Z,9.40
2022-09-27T04:43:00.655Z,9.39
2022-09-27T04:44:00.632Z,9.39
2022-09-27T04:45:00.620Z,9.39
2022-09-27T04:46:00.738Z,9.38
2022-09-27T04:47:00.626Z,9.38
2022-09-27T04:48:00.599Z,9.38
2022-09-27T04:49:00.565Z,9.38
2022-09-27T04:50:00.563Z,9.35
2022-09-27T04:51:00.534Z,9.38
2022-09-27T04:52:00.553Z,9.39
2022-09-27T04:53:00.634Z,9.40
2022-09-27T04:54:07.565Z,9.38
2022-09-27T04:55:00.486Z,9.39
2022-09-27T04:56:00.465Z,9.39
2022-09-27T04:57:00.455Z,9.40
2022-09-27T04:58:00.434Z,9.40
2022-09-27T04:59:00.434Z,9.40
2022-09-27T05:00:00.415Z,9.42
2022-09-27T05:01:00.436Z,9.42
2022-09-27T05:02:00.503Z,9.43
2022-09-27T05:03:00.425Z,9.45
2022-09-27T05:04:00.366Z,9.45
2022-09-27T05:05:00.355Z,9.46
2022-09-27T05:06:00.332Z,9.46
2022-09-27T05:07:00.323Z,9.48
2022-09-27T05:08:00.316Z,9.49
2022-09-27T05:09:00.302Z,9.52
2022-09-27T05:10:00.327Z,9.50
2022-09-27T05:11:00.283Z,9.50
2022-09-27T05:12:00.252Z,9.52
2022-09-27T05:13:00.244Z,9.52
2022-09-27T05:14:00.244Z,9.53
2022-09-27T05:15:00.226Z,9.56
2022-09-27T05:16:00.210Z,9.56
2022-09-27T05:17:00.267Z,9.57
2022-09-27T05:18:00.172Z,9.57
2022-09-27T05:19:00.182Z,9.57
2022-09-27T05:20:00.150Z,9.56
2022-09-27T05:21:00.168Z,9.56
2022-09-27T05:22:00.139Z,9.57
2022-09-27T05:23:00.118Z,9.56
2022-09-27T05:24:00.110Z,9.53
2022-09-27T05:25:00.089Z,9.56
2022-09-27T05:26:00.070Z,9.58
2022-09-27T05:27:00.069Z,9.58
2022-09-27T05:28:00.050Z,9.58
2022-09-27T05:29:00.182Z,9.61
2022-09-27T05:30:00.033Z,9.63
2022-09-27T05:31:00.113Z,9.63
2022-09-27T05:32:00.007Z,9.63
2022-09-27T05:33:00.023Z,9.63
2022-09-27T05:34:00.003Z,9.63
2022-09-27T05:34:59.982Z,9.64
2022-09-27T05:35:59.965Z,9.66
2022-09-27T05:36:59.963Z,9.66
2022-09-27T05:37:59.940Z,9.66
2022-09-27T05:38:59.932Z,9.67
2022-09-27T05:40:01.241Z,9.67
2022-09-27T05:41:00.949Z,9.70
2022-09-27T05:41:59.869Z,9.70
2022-09-27T05:42:59.858Z,9.71
2022-09-27T05:43:59.846Z,9.70
2022-09-27T05:44:59.860Z,9.71
2022-09-27T05:45:59.912Z,9.71
2022-09-27T05:46:59.815Z,9.70
2022-09-27T05:47:59.808Z,9.70
2022-09-27T05:48:59.817Z,9.71
2022-09-27T05:49:59.778Z,9.71
2022-09-27T05:50:59.780Z,9.71
2022-09-27T05:51:59.745Z,9.75
2022-09-27T05:52:59.741Z,9.76
2022-09-27T05:53:59.718Z,9.76
2022-09-27T05:54:59.717Z,9.79
2022-09-27T05:55:59.696Z,9.81
2022-09-27T05:56:59.675Z,9.82
2022-09-27T05:57:59.678Z,9.85
2022-09-27T05:58:59.669Z,9.88
2022-09-27T05:59:59.656Z,9.88
2022-09-27T06:00:59.623Z,9.91
2022-09-27T06:01:59.647Z,9.94
2022-09-27T06:02:59.649Z,9.97
2022-09-27T06:03:59.583Z,9.99
2022-09-27T06:04:59.620Z,10.01
2022-09-27T06:05:59.566Z,10.01
2022-09-27T06:06:59.577Z,10.01
2022-09-27T06:07:59.526Z,10.04
2022-09-27T06:09:59.517Z,10.09
2022-09-27T06:10:59.501Z,10.12
2022-09-27T06:11:59.484Z,10.10
2022-09-27T06:12:59.472Z,10.15
2022-09-27T06:13:59.503Z,10.17
2022-09-27T06:14:59.583Z,10.18
2022-09-27T06:15:59.422Z,10.24
2022-09-27T06:16:59.505Z,10.26
2022-09-27T06:17:59.423Z,10.32
2022-09-27T06:18:59.440Z,10.37
2022-09-27T06:19:59.416Z,10.34
2022-09-27T06:20:59.363Z,10.30
2022-09-27T06:21:59.343Z,10.32
2022-09-27T06:22:59.324Z,10.28
2022-09-27T06:23:59.324Z,10.22
2022-09-27T06:24:59.322Z,10.21
2022-09-27T06:25:59.365Z,10.17
2022-09-27T06:26:59.273Z,10.14
2022-09-27T06:27:59.293Z,10.10
2022-09-27T06:28:59.279Z,10.10
2022-09-27T06:29:59.252Z,10.06
2022-09-27T06:30:59.330Z,10.03
2022-09-27T06:31:59.218Z,10.04
2022-09-27T06:32:59.200Z,10.03
2022-09-27T06:33:59.182Z,10.00
2022-09-27T06:34:59.172Z,9.96
2022-09-27T06:35:59.211Z,9.97
2022-09-27T06:36:59.186Z,9.99
2022-09-27T06:37:59.153Z,9.99
2022-09-27T06:38:59.132Z,10.00
2022-09-27T06:39:59.150Z,10.01
2022-09-27T06:40:59.135Z,10.01
2022-09-27T06:41:59.174Z,10.00
2022-09-27T06:42:59.068Z,10.00
2022-09-27T06:43:59.051Z,10.03
2022-09-27T06:44:59.062Z,10.04
2022-09-27T06:45:59.118Z,10.00
2022-09-27T06:46:59.011Z,10.03
2022-09-27T06:47:59.009Z,10.03
2022-09-27T06:48:58.992Z,10.04
2022-09-27T06:49:58.969Z,10.03
2022-09-27T06:50:58.971Z,10.00
2022-09-27T06:51:58.951Z,10.00
2022-09-27T06:52:58.930Z,9.97
2022-09-27T06:53:58.918Z,9.97
2022-09-27T06:54:58.901Z,9.97
2022-09-27T06:55:58.908Z,9.99
2022-09-27T06:57:02.322Z,9.96
2022-09-27T06:57:58.868Z,9.94
2022-09-27T06:58:58.856Z,9.91
2022-09-27T06:59:58.846Z,9.88
2022-09-27T07:00:59.005Z,9.91
2022-09-27T07:01:58.901Z,9.89
2022-09-27T07:02:58.807Z,9.93
2022-09-27T07:03:58.801Z,9.91
2022-09-27T07:04:58.803Z,9.93
2022-09-27T07:05:58.776Z,9.93
2022-09-27T07:06:58.757Z,9.93
2022-09-27T07:07:58.740Z,9.93
2022-09-27T07:08:58.737Z,9.93
2022-09-27T07:09:58.717Z,9.88
2022-09-27T07:10:58.714Z,9.86
2022-09-27T07:11:58.687Z,9.86
2022-09-27T07:12:58.675Z,9.86
2022-09-27T07:13:58.669Z,9.83
2022-09-27T07:14:58.786Z,9.85
2022-09-27T07:15:58.656Z,9.85
2022-09-27T07:16:58.625Z,9.86
2022-09-27T07:17:58.668Z,9.88
2022-09-27T07:18:58.596Z,9.86
2022-09-27T07:19:58.585Z,9.83
2022-09-27T07:21:00.395Z,9.82
2022-09-27T07:21:58.574Z,9.83
2022-09-27T07:22:58.551Z,9.85
2022-09-27T07:23:58.535Z,9.86
2022-09-27T07:24:58.534Z,9.89
2022-09-27T07:25:58.543Z,9.93
2022-09-27T07:26:58.503Z,9.93
2022-09-27T07:27:58.493Z,9.94
2022-09-27T07:28:58.475Z,10.00
2022-09-27T07:29:58.473Z,10.06
2022-09-27T07:30:58.517Z,10.14
2022-09-27T07:31:58.443Z,10.22
2022-09-27T07:32:58.422Z,10.24
2022-09-27T07:33:58.410Z,10.19
2022-09-27T07:34:58.393Z,10.21
2022-09-27T07:35:58.421Z,10.22
2022-09-27T07:36:58.363Z,10.21
2022-09-27T07:37:58.361Z,10.25
2022-09-27T07:38:58.352Z,10.36
2022-09-27T07:39:58.334Z,10.40
2022-09-27T07:40:58.372Z,10.44
2022-09-27T07:41:58.302Z,10.47
2022-09-27T07:42:58.453Z,10.55
2022-09-27T07:43:58.283Z,10.66
2022-09-27T07:44:58.261Z,10.80
2022-09-27T07:45:58.343Z,10.92
2022-09-27T07:46:58.229Z,10.89
2022-09-27T07:47:58.222Z,10.83
2022-09-27T07:48:58.210Z,10.80
2022-09-27T07:49:58.191Z,10.91
2022-09-27T07:50:58.171Z,11.07
2022-09-27T07:51:58.174Z,11.11
2022-09-27T07:52:58.151Z,10.98
2022-09-27T07:53:58.131Z,10.95
2022-09-27T07:54:58.120Z,11.01
2022-09-27T07:55:58.110Z,10.94
2022-09-27T07:56:58.111Z,10.94
2022-09-27T07:57:58.081Z,10.98
2022-09-27T07:58:58.072Z,11.09
2022-09-27T07:59:58.070Z,11.21
2022-09-27T08:00:58.100Z,11.25
2022-09-27T08:01:58.069Z,11.17
2022-09-27T08:02:58.038Z,11.19
2022-09-27T08:03:58.009Z,11.20
2022-09-27T08:04:57.991Z,11.36
2022-09-27T08:05:57.969Z,11.35
2022-09-27T08:06:57.970Z,11.31
2022-09-27T08:07:57.958Z,11.24
2022-09-27T08:08:57.948Z,11.16
2022-09-27T08:09:57.939Z,11.20
2022-09-27T08:10:57.910Z,11.24
2022-09-27T08:11:57.908Z,11.13
2022-09-27T08:12:57.928Z,11.10
2022-09-27T08:13:57.870Z,11.10
2022-09-27T08:14:57.859Z,11.06
2022-09-27T08:15:57.850Z,11.06
2022-09-27T08:16:57.850Z,11.19
2022-09-27T08:17:57.817Z,11.29
2022-09-27T08:18:57.812Z,11.49
2022-09-27T08:19:57.797Z,11.52
2022-09-27T08:20:57.785Z,11.59
2022-09-27T08:21:58.972Z,11.80
2022-09-27T08:22:57.758Z,11.86
2022-09-27T08:23:57.739Z,12.04
2022-09-27T08:24:57.743Z,12.16
2022-09-27T08:25:57.716Z,12.11
2022-09-27T08:26:57.707Z,12.23
2022-09-27T08:27:57.688Z,12.33
2022-09-27T08:28:57.677Z,12.60
2022-09-27T08:29:57.658Z,12.49
2022-09-27T08:30:57.657Z,12.69
2022-09-27T08:31:57.697Z,12.64
2022-09-27T08:32:57.629Z,12.64
2022-09-27T08:33:57.607Z,12.54
2022-09-27T08:34:57.597Z,12.49
2022-09-27T08:35:57.577Z,12.48
2022-09-27T08:36:57.590Z,12.31
2022-09-27T08:37:57.558Z,12.30
2022-09-27T08:38:57.556Z,12.41
2022-09-27T08:39:57.542Z,12.67
2022-09-27T08:40:57.593Z,12.60
2022-09-27T08:41:57.517Z,12.54
2022-09-27T08:42:57.499Z,12.38
2022-09-27T08:43:57.490Z,12.26
2022-09-27T08:45:02.385Z,12.19
2022-09-27T08:45:58.468Z,12.19
2022-09-27T08:46:57.449Z,12.19
2022-09-27T08:47:57.419Z,12.15
2022-09-27T08:48:57.408Z,11.87
2022-09-27T08:49:57.394Z,11.72
2022-09-27T08:50:57.395Z,11.71
2022-09-27T08:51:57.378Z,11.70
2022-09-27T08:52:57.364Z,11.67
2022-09-27T08:53:57.345Z,11.65
2022-09-27T08:54:57.345Z,11.68
2022-09-27T08:55:57.315Z,11.68
2022-09-27T08:56:57.345Z,11.64
2022-09-27T08:57:57.316Z,11.68
2022-09-27T08:58:57.279Z,11.68
2022-09-27T08:59:57.263Z,11.62
2022-09-27T09:00:57.291Z,11.59
2022-09-27T09:01:57.293Z,11.57
2022-09-27T09:02:57.223Z,11.54
2022-09-27T09:03:57.206Z,11.41
2022-09-27T09:04:57.196Z,11.35
2022-09-27T09:05:57.174Z,11.24
2022-09-27T09:06:57.194Z,11.19
2022-09-27T09:07:57.152Z,11.20
2022-09-27T09:08:57.142Z,11.19
2022-09-27T09:09:57.123Z,11.21
2022-09-27T09:10:57.158Z,11.21
2022-09-27T09:11:57.106Z,11.20
2022-09-27T09:12:57.104Z,11.21
2022-09-27T09:13:57.073Z,11.20
2022-09-27T09:14:57.071Z,11.16
2022-09-27T09:15:57.060Z,11.14
2022-09-27T09:16:57.043Z,11.10
2022-09-27T09:17:57.035Z,11.11
2022-09-27T09:18:57.022Z,11.13
2022-09-27T09:19:57.014Z,11.10
2022-09-27T09:20:56.983Z,11.11
2022-09-27T09:21:56.965Z,11.13
2022-09-27T09:22:56.973Z,11.13
2022-09-27T09:23:56.942Z,11.09
2022-09-27T09:24:56.954Z,11.11
2022-09-27T09:25:56.914Z,11.13
2022-09-27T09:26:57.797Z,11.13
2022-09-27T09:28:01.458Z,11.10
2022-09-27T09:28:57.882Z,11.10
2022-09-27T09:29:56.867Z,11.07
2022-09-27T09:30:56.880Z,11.09
2022-09-27T09:31:56.885Z,11.09
2022-09-27T09:32:56.843Z,11.13
2022-09-27T09:33:56.812Z,11.11
2022-09-27T09:34:56.811Z,11.09
2022-09-27T09:35:56.796Z,11.09
2022-09-27T09:36:56.781Z,11.06
2022-09-27T09:37:56.771Z,11.09
2022-09-27T09:38:56.753Z,11.06
2022-09-27T09:39:56.740Z,11.03
2022-09-27T09:40:56.747Z,11.02
2022-09-27T09:41:56.709Z,11.01
2022-09-27T09:42:56.720Z,11.03
2022-09-27T09:43:56.681Z,11.07
2022-09-27T09:44:56.680Z,11.06
2022-09-27T09:45:56.725Z,11.09
2022-09-27T09:46:56.641Z,11.13
2022-09-27T09:47:56.643Z,11.14
2022-09-27T09:48:56.620Z,11.13
2022-09-27T09:49:56.601Z,11.10
2022-09-27T09:50:56.598Z,11.10
2022-09-27T09:51:56.569Z,11.10
2022-09-27T09:52:56.578Z,11.11
2022-09-27T09:53:56.554Z,11.13
2022-09-27T09:54:56.539Z,11.09
2022-09-27T09:55:56.529Z,11.10
2022-09-27T09:56:56.519Z,11.10
2022-09-27T09:57:56.508Z,11.10
2022-09-27T09:58:56.489Z,11.10
2022-09-27T09:59:56.489Z,11.09
2022-09-27T10:00:56.501Z,11.11
2022-09-27T10:01:56.519Z,11.13
2022-09-27T10:02:56.438Z,11.14
2022-09-27T10:03:56.418Z,11.16
2022-09-27T10:04:56.439Z,11.24
2022-09-27T10:05:56.398Z,11.24
2022-09-27T10:06:56.383Z,11.20
2022-09-27T10:07:56.375Z,11.19
2022-09-27T10:08:56.358Z,11.17
2022-09-27T10:09:56.338Z,11.19
2022-09-27T10:10:56.327Z,11.21
2022-09-27T10:11:56.317Z,11.19
2022-09-27T10:12:56.317Z,11.17
2022-09-27T10:13:56.288Z,11.14
2022-09-27T10:14:56.279Z,11.16
2022-09-27T10:15:56.258Z,11.16
2022-09-27T10:16:56.247Z,11.17
2022-09-27T10:17:56.247Z,11.11
2022-09-27T10:18:56.233Z,11.16
2022-09-27T10:19:56.207Z,11.17
2022-09-27T10:20:57.048Z,11.16
2022-09-27T10:21:56.186Z,11.11
2022-09-27T10:22:56.197Z,11.13
2022-09-27T10:23:56.150Z,11.06
2022-09-27T10:24:56.146Z,11.03
2022-09-27T10:25:56.128Z,11.03
2022-09-27T10:26:56.116Z,10.99
2022-09-27T10:27:56.130Z,10.94
2022-09-27T10:28:56.095Z,10.91
2022-09-27T10:29:56.084Z,10.86
2022-09-27T10:30:56.068Z,10.83
2022-09-27T10:31:56.102Z,10.83
2022-09-27T10:32:56.055Z,10.81
2022-09-27T10:33:56.026Z,10.81
2022-09-27T10:34:56.014Z,10.81
2022-09-27T10:35:56.015Z,10.81
2022-09-27T10:36:55.993Z,10.77
2022-09-27T10:37:55.992Z,10.81
2022-09-27T10:38:55.954Z,10.84
2022-09-27T10:39:55.945Z,10.92
2022-09-27T10:40:56.072Z,11.09
2022-09-27T10:41:55.925Z,11.17
2022-09-27T10:42:55.916Z,11.24
2022-09-27T10:43:55.898Z,11.28
2022-09-27T10:44:55.874Z,11.34
2022-09-27T10:45:55.929Z,11.52
2022-09-27T10:46:55.853Z,11.64
2022-09-27T10:47:55.853Z,11.82
2022-09-27T10:48:55.827Z,11.83
2022-09-27T10:49:55.815Z,11.99
2022-09-27T10:50:58.850Z,12.09
2022-09-27T10:51:55.795Z,11.97
2022-09-27T10:52:55.783Z,11.82
2022-09-27T10:54:02.830Z,11.86
2022-09-27T10:54:55.749Z,11.77
2022-09-27T10:55:55.751Z,11.71
2022-09-27T10:56:55.719Z,11.75
2022-09-27T10:57:55.729Z,11.80
2022-09-27T10:58:55.690Z,11.82
2022-09-27T10:59:55.679Z,11.96
2022-09-27T11:00:55.730Z,12.02
2022-09-27T11:01:55.678Z,11.96
2022-09-27T11:02:55.661Z,11.94
2022-09-27T11:03:55.648Z,12.02
2022-09-27T11:04:55.640Z,12.05
2022-09-27T11:05:55.600Z,12.02
2022-09-27T11:06:55.578Z,11.96
2022-09-27T11:07:55.578Z,11.93
2022-09-27T11:08:55.568Z,11.83
2022-09-27T11:09:55.567Z,11.72
2022-09-27T11:10:55.528Z,11.71
2022-09-27T11:11:55.527Z,11.70
2022-09-27T11:12:55.516Z,11.72
2022-09-27T11:13:55.507Z,11.65
2022-09-27T11:14:55.484Z,11.61
2022-09-27T11:15:55.507Z,11.61
2022-09-27T11:16:55.457Z,11.65
2022-09-27T11:17:55.447Z,11.68
2022-09-27T11:18:55.475Z,11.70
2022-09-27T11:19:55.421Z,11.77
2022-09-27T11:20:55.398Z,11.83
2022-09-27T11:21:55.395Z,11.86
2022-09-27T11:22:55.375Z,11.94
2022-09-27T11:23:55.377Z,11.86
2022-09-27T11:24:55.346Z,11.89
2022-09-27T11:25:55.341Z,11.96
2022-09-27T11:26:55.321Z,12.78
2022-09-27T11:27:55.316Z,12.69
2022-09-27T11:28:55.306Z,12.52
2022-09-27T11:29:55.288Z,12.51
2022-09-27T11:30:55.272Z,12.45
2022-09-27T11:31:55.284Z,12.33
2022-09-27T11:32:55.237Z,12.16
2022-09-27T11:33:55.235Z,12.08
2022-09-27T11:34:55.218Z,12.02
2022-09-27T11:35:55.206Z,12.04
2022-09-27T11:36:55.186Z,12.01
2022-09-27T11:37:55.175Z,12.37
2022-09-27T11:38:58.138Z,12.29
2022-09-27T11:39:56.153Z,12.29
2022-09-27T11:40:55.178Z,13.69
2022-09-27T11:41:55.133Z,14.47
2022-09-27T11:42:55.117Z,15.03
2022-09-27T11:43:55.115Z,15.23
2022-09-27T11:45:13.453Z,15.63
2022-09-27T11:46:15.403Z,14.94
2022-09-27T11:46:56.082Z,14.25
2022-09-27T11:47:55.109Z,13.92
2022-09-27T11:48:55.045Z,13.47
2022-09-27T11:49:55.020Z,13.33
2022-09-27T11:50:55.005Z,13.32
2022-09-27T11:51:54.984Z,13.77
2022-09-27T11:52:54.973Z,13.63
2022-09-27T11:53:55.034Z,13.51
2022-09-27T11:54:54.945Z,13.41
2022-09-27T11:55:54.944Z,13.17
2022-09-27T11:56:54.923Z,13.29
2022-09-27T11:57:54.914Z,13.14
2022-09-27T11:58:54.894Z,12.95
2022-09-27T11:59:54.894Z,12.82
2022-09-27T12:00:54.875Z,12.81
2022-09-27T12:01:54.925Z,12.70
2022-09-27T12:02:54.903Z,12.67
2022-09-27T12:03:54.833Z,13.17
2022-09-27T12:04:54.824Z,13.22
2022-09-27T12:05:58.304Z,12.93
2022-09-27T12:06:54.785Z,12.79
2022-09-27T12:07:54.773Z,12.66
2022-09-27T12:08:54.753Z,12.63
2022-09-27T12:09:54.793Z,12.70
2022-09-27T12:10:54.774Z,12.78
2022-09-27T12:11:54.726Z,12.85
2022-09-27T12:12:54.724Z,12.93
2022-09-27T12:13:54.721Z,12.92
2022-09-27T12:14:54.683Z,12.78
2022-09-27T12:15:54.697Z,13.30
2022-09-27T12:16:54.655Z,13.77
2022-09-27T12:17:54.643Z,13.54
2022-09-27T12:18:54.641Z,13.65
2022-09-27T12:19:54.622Z,14.32
2022-09-27T12:20:54.602Z,14.46
2022-09-27T12:21:54.595Z,15.02
2022-09-27T12:22:59.006Z,15.26
2022-09-27T12:23:55.573Z,15.68
2022-09-27T12:24:54.553Z,15.59
2022-09-27T12:25:54.543Z,15.26
2022-09-27T12:26:54.523Z,15.21
2022-09-27T12:27:54.512Z,14.60
2022-09-27T12:28:54.502Z,14.34
2022-09-27T12:29:54.493Z,14.19
2022-09-27T12:31:10.897Z,14.19
2022-09-27T12:31:55.485Z,14.67
2022-09-27T12:32:54.445Z,15.08
2022-09-27T12:33:54.442Z,14.91
2022-09-27T12:34:54.413Z,14.93
2022-09-27T12:35:54.412Z,15.06
2022-09-27T12:36:54.383Z,16.12
2022-09-27T12:37:54.382Z,16.30
2022-09-27T12:38:54.373Z,16.04
2022-09-27T12:39:54.354Z,15.38
2022-09-27T12:40:54.388Z,14.72
2022-09-27T12:41:54.324Z,14.37
2022-09-27T12:42:54.315Z,14.06
2022-09-27T12:43:54.313Z,13.63
2022-09-27T12:44:54.285Z,13.30
2022-09-27T12:45:54.273Z,13.09
2022-09-27T12:46:54.332Z,12.97
2022-09-27T12:47:54.264Z,12.77
2022-09-27T12:48:54.241Z,12.67
2022-09-27T12:49:57.601Z,12.56
2022-09-27T12:50:55.203Z,12.45
2022-09-27T12:51:54.194Z,12.44
2022-09-27T12:52:54.173Z,12.41
2022-09-27T12:53:54.173Z,12.37
2022-09-27T12:54:54.143Z,12.38
2022-09-27T12:55:54.143Z,12.46
2022-09-27T12:56:54.122Z,12.52
2022-09-27T12:57:54.128Z,12.59
2022-09-27T12:58:54.112Z,12.79
2022-09-27T12:59:54.110Z,12.78
2022-09-27T13:00:54.117Z,12.67
2022-09-27T13:01:54.123Z,12.74
2022-09-27T13:03:55.058Z,13.38
2022-09-27T13:04:54.020Z,13.89
2022-09-27T13:05:54.013Z,14.31
2022-09-27T13:06:54.001Z,13.95
2022-09-27T13:07:53.981Z,13.51
2022-09-27T13:08:54.297Z,13.32
2022-09-27T13:09:53.971Z,13.18
2022-09-27T13:10:53.941Z,12.99
2022-09-27T13:11:53.934Z,12.84
2022-09-27T13:12:53.913Z,12.74
2022-09-27T13:13:53.911Z,12.62
2022-09-27T13:14:53.906Z,12.60
2022-09-27T13:15:53.918Z,12.52
2022-09-27T13:16:53.855Z,12.52
2022-09-27T13:17:53.851Z,12.64
2022-09-27T13:18:53.832Z,12.87
2022-09-27T13:19:53.831Z,13.17
2022-09-27T13:20:53.801Z,13.18
2022-09-27T13:21:53.794Z,13.04
2022-09-27T13:22:53.781Z,13.14
2022-09-27T13:23:53.770Z,13.51
2022-09-27T13:24:53.761Z,13.33
2022-09-27T13:25:55.790Z,13.18
2022-09-27T13:26:53.920Z,13.38
2022-09-27T13:27:53.721Z,13.61
2022-09-27T13:28:53.710Z,13.70
2022-09-27T13:29:53.711Z,13.61
2022-09-27T13:30:53.728Z,13.54
2022-09-27T13:31:53.673Z,13.56
2022-09-27T13:32:53.641Z,13.49
2022-09-27T13:33:53.639Z,13.52
2022-09-27T13:34:53.631Z,13.52
2022-09-27T13:35:53.611Z,13.63
2022-09-27T13:36:53.590Z,13.67
2022-09-27T13:37:53.599Z,13.49
2022-09-27T13:38:53.560Z,13.22
2022-09-27T13:39:53.570Z,12.95
2022-09-27T13:40:53.617Z,12.75
2022-09-27T13:41:53.532Z,12.66
2022-09-27T13:42:53.511Z,12.56
2022-09-27T13:43:53.508Z,12.48
2022-09-27T13:44:53.590Z,12.46
2022-09-27T13:45:53.479Z,12.45
2022-09-27T13:46:53.813Z,12.41
2022-09-27T13:47:53.449Z,12.34
2022-09-27T13:48:53.440Z,12.30
2022-09-27T13:49:53.455Z,12.33
2022-09-27T13:50:53.419Z,12.33
2022-09-27T13:51:53.407Z,12.38
2022-09-27T13:52:53.379Z,12.45
2022-09-27T13:53:53.369Z,12.49
2022-09-27T13:54:53.356Z,12.57
2022-09-27T13:55:53.349Z,12.66
2022-09-27T13:56:53.328Z,12.75
2022-09-27T13:57:53.308Z,13.14
2022-09-27T13:58:53.298Z,13.46
2022-09-27T13:59:53.286Z,13.62
2022-09-27T14:00:53.318Z,13.65
2022-09-27T14:01:53.361Z,13.65
2022-09-27T14:02:53.256Z,13.69
2022-09-27T14:03:53.237Z,13.73
2022-09-27T14:04:53.229Z,13.58
2022-09-27T14:05:53.218Z,13.52
2022-09-27T14:06:53.199Z,13.65
2022-09-27T14:07:53.188Z,13.62
2022-09-27T14:08:53.168Z,13.40
2022-09-27T14:09:53.157Z,13.11
2022-09-27T14:10:53.157Z,12.93
2022-09-27T14:11:53.128Z,12.77
2022-09-27T14:12:53.118Z,12.71
2022-09-27T14:13:53.098Z,12.67
2022-09-27T14:14:53.088Z,12.64
2022-09-27T14:15:53.128Z,12.57
2022-09-27T14:16:53.107Z,12.46
2022-09-27T14:17:53.046Z,12.45
2022-09-27T14:18:53.037Z,12.49
2022-09-27T14:19:53.017Z,12.51
2022-09-27T14:20:53.025Z,12.52
2022-09-27T14:21:52.993Z,12.59
2022-09-27T14:22:52.986Z,12.67
2022-09-27T14:23:52.966Z,12.66
2022-09-27T14:24:52.957Z,12.64
2022-09-27T14:25:52.948Z,12.60
2022-09-27T14:26:52.940Z,12.56
2022-09-27T14:27:52.908Z,12.51
2022-09-27T14:28:52.916Z,12.46
2022-09-27T14:29:52.886Z,12.38
2022-09-27T14:30:52.953Z,12.38
2022-09-27T14:31:52.866Z,12.30
2022-09-27T14:32:52.854Z,12.24
2022-09-27T14:33:52.840Z,12.27
2022-09-27T14:34:52.826Z,12.30
2022-09-27T14:35:52.826Z,12.33
2022-09-27T14:36:52.806Z,12.34
2022-09-27T14:37:52.787Z,12.41
2022-09-27T14:38:52.777Z,12.44
2022-09-27T14:39:52.755Z,12.48
2022-09-27T14:40:52.781Z,12.51
2022-09-27T14:41:52.726Z,12.64
2022-09-27T14:42:52.715Z,12.69
2022-09-27T14:43:52.706Z,12.66
2022-09-27T14:44:52.716Z,12.54
2022-09-27T14:45:52.694Z,12.54
2022-09-27T14:46:52.712Z,12.59
2022-09-27T14:47:52.654Z,12.52
2022-09-27T14:48:52.643Z,12.48
2022-09-27T14:49:52.633Z,12.49
2022-09-27T14:50:52.615Z,12.51
2022-09-27T14:51:52.616Z,12.57
2022-09-27T14:52:52.592Z,12.63
2022-09-27T14:53:52.576Z,12.69
2022-09-27T14:54:52.555Z,12.71
2022-09-27T14:55:52.545Z,12.71
2022-09-27T14:56:53.619Z,12.74
2022-09-27T14:57:52.524Z,12.78
2022-09-27T14:58:52.504Z,12.75
2022-09-27T14:59:52.495Z,12.75
2022-09-27T15:00:52.483Z,12.74
2022-09-27T15:01:52.484Z,12.74
2022-09-27T15:02:52.482Z,12.78
2022-09-27T15:03:52.546Z,12.84
2022-09-27T15:04:52.460Z,12.87
2022-09-27T15:05:52.418Z,12.88
2022-09-27T15:06:52.424Z,12.88
2022-09-27T15:07:52.383Z,12.85
2022-09-27T15:08:52.378Z,12.74
2022-09-27T15:09:52.361Z,12.66
2022-09-27T15:10:52.344Z,12.66
2022-09-27T15:11:52.354Z,12.63
2022-09-27T15:12:52.314Z,12.64
2022-09-27T15:13:52.365Z,12.66
2022-09-27T15:14:54.218Z,12.66
2022-09-27T15:15:52.418Z,12.69
2022-09-27T15:16:52.273Z,12.77
2022-09-27T15:17:52.255Z,12.78
2022-09-27T15:18:52.241Z,12.78
2022-09-27T15:19:52.230Z,12.77
2022-09-27T15:20:52.211Z,12.71
2022-09-27T15:21:52.218Z,12.74
2022-09-27T15:22:52.183Z,12.82
2022-09-27T15:23:52.178Z,13.04
2022-09-27T15:24:52.172Z,13.18
2022-09-27T15:25:52.153Z,13.20
2022-09-27T15:26:52.143Z,13.20
2022-09-27T15:27:52.132Z,13.06
2022-09-27T15:28:52.102Z,13.02
2022-09-27T15:29:52.093Z,12.96
2022-09-27T15:30:52.099Z,12.84
2022-09-27T15:31:52.083Z,12.77
2022-09-27T15:32:52.052Z,12.70
2022-09-27T15:33:52.117Z,12.60
2022-09-27T15:34:52.022Z,12.44
2022-09-27T15:35:52.023Z,12.42
2022-09-27T15:36:52.003Z,12.44
2022-09-27T15:37:51.994Z,12.29
2022-09-27T15:38:51.972Z,12.20
2022-09-27T15:39:51.961Z,12.20
2022-09-27T15:40:52.067Z,12.15
2022-09-27T15:41:51.931Z,12.19
2022-09-27T15:42:51.932Z,12.21
2022-09-27T15:43:51.911Z,12.24
2022-09-27T15:44:51.933Z,12.27
2022-09-27T15:45:51.881Z,12.31
2022-09-27T15:46:51.892Z,12.37
2022-09-27T15:47:51.880Z,12.39
2022-09-27T15:48:51.841Z,12.37
2022-09-27T15:49:51.831Z,12.42
2022-09-27T15:50:51.810Z,12.44
2022-09-27T15:51:51.808Z,12.46
2022-09-27T15:52:51.798Z,12.49
2022-09-27T15:53:51.770Z,12.51
2022-09-27T15:54:51.773Z,12.46
2022-09-27T15:55:51.760Z,12.45
2022-09-27T15:56:55.228Z,12.44
2022-09-27T15:57:51.731Z,12.39
2022-09-27T15:58:51.709Z,12.39
2022-09-27T15:59:51.698Z,12.38
2022-09-27T16:00:51.724Z,12.34
2022-09-27T16:01:51.736Z,12.31
2022-09-27T16:02:51.649Z,12.27
2022-09-27T16:03:51.643Z,12.23
2022-09-27T16:04:51.621Z,12.23
2022-09-27T16:05:51.608Z,12.21
2022-09-27T16:06:51.589Z,12.21
2022-09-27T16:07:51.599Z,12.15
2022-09-27T16:08:51.568Z,12.13
2022-09-27T16:09:51.559Z,12.11
2022-09-27T16:10:51.550Z,12.06
2022-09-27T16:11:51.538Z,12.05
2022-09-27T16:12:51.529Z,11.99
2022-09-27T16:13:51.510Z,11.97
2022-09-27T16:14:51.502Z,11.96
2022-09-27T16:15:51.556Z,11.96
2022-09-27T16:16:51.472Z,11.90
2022-09-27T16:17:51.470Z,11.85
2022-09-27T16:18:51.442Z,11.78
2022-09-27T16:19:51.433Z,11.74
2022-09-27T16:20:51.408Z,11.71
2022-09-27T16:21:51.397Z,11.70
2022-09-27T16:22:51.397Z,11.67
2022-09-27T16:23:51.377Z,11.67
2022-09-27T16:24:51.365Z,11.61
2022-09-27T16:25:51.356Z,11.61
2022-09-27T16:26:51.358Z,11.61
2022-09-27T16:27:51.337Z,11.61
2022-09-27T16:28:51.306Z,11.61
2022-09-27T16:29:51.296Z,11.61
2022-09-27T16:30:51.325Z,11.61
2022-09-27T16:31:51.413Z,11.61
2022-09-27T16:32:51.267Z,11.61
2022-09-27T16:33:51.256Z,11.56
2022-09-27T16:34:51.287Z,11.52
2022-09-27T16:35:51.256Z,11.49
2022-09-27T16:36:51.196Z,11.47
2022-09-27T16:37:51.205Z,11.43
2022-09-27T16:38:51.179Z,11.38
2022-09-27T16:39:51.166Z,11.32
2022-09-27T16:40:51.218Z,11.34
2022-09-27T16:41:51.136Z,11.36
2022-09-27T16:42:51.135Z,11.36
2022-09-27T16:43:51.114Z,11.36
2022-09-27T16:44:51.094Z,11.36
2022-09-27T16:45:51.086Z,11.35
2022-09-27T16:46:51.183Z,11.29
2022-09-27T16:47:51.065Z,11.29
2022-09-27T16:48:51.044Z,11.28
2022-09-27T16:49:51.035Z,11.29
2022-09-27T16:50:51.030Z,11.25
2022-09-27T16:51:51.005Z,11.19
2022-09-27T16:52:51.013Z,11.17
2022-09-27T16:53:50.993Z,11.20
2022-09-27T16:54:58.025Z,11.20
2022-09-27T16:55:50.955Z,11.20
2022-09-27T16:56:55.092Z,11.20
2022-09-27T16:57:50.924Z,11.21
2022-09-27T16:58:50.956Z,11.20
2022-09-27T16:59:50.903Z,11.19
2022-09-27T17:00:50.926Z,11.20
2022-09-27T17:01:50.918Z,11.17
2022-09-27T17:02:52.856Z,11.16
2022-09-27T17:03:54.458Z,11.16
2022-09-27T17:04:51.837Z,11.09
2022-09-27T17:05:50.816Z,11.06
2022-09-27T17:06:50.821Z,10.98
2022-09-27T17:07:50.783Z,10.95
2022-09-27T17:08:50.805Z,10.95
2022-09-27T17:09:50.753Z,10.96
2022-09-27T17:10:50.763Z,10.95
2022-09-27T17:11:50.743Z,10.95
2022-09-27T17:12:50.724Z,10.94
2022-09-27T17:13:50.733Z,10.94
2022-09-27T17:14:50.712Z,10.89
2022-09-27T17:15:50.771Z,10.86
2022-09-27T17:16:50.692Z,10.84
2022-09-27T17:17:50.660Z,10.81
2022-09-27T17:18:50.652Z,10.81
2022-09-27T17:19:50.623Z,10.81
2022-09-27T17:20:50.616Z,10.81
2022-09-27T17:21:50.601Z,10.81
2022-09-27T17:22:50.582Z,10.81
2022-09-27T17:23:50.603Z,10.80
2022-09-27T17:24:50.561Z,10.76
2022-09-27T17:25:50.568Z,10.68
2022-09-27T17:26:50.531Z,10.65
2022-09-27T17:27:50.521Z,10.62
2022-09-27T17:28:50.531Z,10.62
2022-09-27T17:29:50.482Z,10.62